Time;durP1;ratioP1;P1;durP2;ratioP2;P2;SDS_P1;SDS_P2;PMS_P1;PMS_P2;Temp;Humidity;BMP_temperature;BMP_pressure;BME280_temperature;BME280_humidity;BME280_pressure;Samples;Min_cycle;Max_cycle;Signal;HPM_P1;HPM_P2
2023/12/08 00:02:02;;;;;;;21.85;13.00;;;6.60;55.70;;;;;;5021501;28;20073;-48
2023/12/08 00:04:29;;;;;;;20.75;12.98;;;6.60;55.70;;;;;;5022774;28;20046;-43
2023/12/08 00:06:58;;;;;;;22.15;13.00;;;6.60;55.80;;;;;;5023805;28;20053;-42
2023/12/08 00:09:25;;;;;;;22.67;13.32;;;6.60;55.90;;;;;;5021783;28;20046;-41
2023/12/08 00:11:52;;;;;;;22.13;12.70;;;6.60;55.80;;;;;;5014986;28;20046;-43
2023/12/08 00:14:19;;;;;;;21.20;12.75;;;6.60;55.70;;;;;;5020892;28;20060;-44
2023/12/08 00:16:46;;;;;;;20.33;12.75;;;6.70;55.90;;;;;;5019409;28;20052;-41
2023/12/08 00:19:14;;;;;;;24.30;13.00;;;6.70;55.80;;;;;;5021989;28;20049;-34
2023/12/08 00:21:41;;;;;;;20.63;12.00;;;6.70;55.70;;;;;;5025366;28;20057;-35
2023/12/08 00:24:09;;;;;;;21.92;12.32;;;6.70;55.70;;;;;;5020851;28;20058;-37
2023/12/08 00:26:37;;;;;;;20.27;11.43;;;6.70;55.60;;;;;;5016798;28;20053;-33
2023/12/08 00:29:05;;;;;;;22.85;12.02;;;6.80;55.60;;;;;;5019501;28;20056;-34
2023/12/08 00:31:32;;;;;;;22.75;12.43;;;6.80;55.60;;;;;;5021384;28;20065;-34
2023/12/08 00:33:59;;;;;;;20.58;12.65;;;6.80;55.50;;;;;;5014955;28;20502;-35
2023/12/08 00:36:26;;;;;;;18.80;11.88;;;6.80;55.30;;;;;;5017543;28;20376;-35
2023/12/08 00:38:54;;;;;;;26.33;13.20;;;6.70;55.20;;;;;;5019491;28;20057;-35
2023/12/08 00:41:24;;;;;;;21.73;12.30;;;6.70;55.20;;;;;;5020594;28;20065;-35
2023/12/08 00:43:51;;;;;;;24.55;14.15;;;6.70;55.30;;;;;;5019632;28;20053;-35
2023/12/08 00:46:18;;;;;;;23.80;13.38;;;6.80;55.30;;;;;;5024730;28;20512;-34
2023/12/08 00:48:45;;;;;;;22.25;13.15;;;6.80;55.40;;;;;;5018474;28;20064;-35
2023/12/08 00:51:13;;;;;;;24.13;13.93;;;6.80;55.20;;;;;;5021242;28;20065;-35
2023/12/08 00:53:41;;;;;;;22.25;12.90;;;6.70;55.20;;;;;;5017978;28;20417;-35
2023/12/08 00:56:09;;;;;;;24.60;14.05;;;6.80;55.30;;;;;;5017385;28;20060;-35
2023/12/08 00:58:38;;;;;;;26.42;14.30;;;6.70;55.30;;;;;;5018178;28;20057;-34
2023/12/08 01:01:06;;;;;;;21.98;12.32;;;6.80;55.40;;;;;;5018444;28;20502;-35
2023/12/08 01:03:33;;;;;;;22.67;13.63;;;6.80;55.30;;;;;;5017042;28;20049;-35
2023/12/08 01:06:00;;;;;;;22.98;13.45;;;6.80;55.20;;;;;;5020573;28;20058;-35
2023/12/08 01:08:27;;;;;;;19.95;12.30;;;6.80;55.20;;;;;;5019961;28;20514;-34
2023/12/08 01:10:54;;;;;;;23.98;13.35;;;6.80;55.20;;;;;;5023400;28;20056;-37
2023/12/08 01:13:22;;;;;;;21.25;12.48;;;6.80;55.10;;;;;;5018235;28;20057;-35
2023/12/08 01:15:50;;;;;;;24.95;13.32;;;6.80;55.20;;;;;;5019966;28;20401;-36
2023/12/08 01:18:17;;;;;;;22.95;12.50;;;6.80;55.10;;;;;;5015797;28;20053;-34
2023/12/08 01:20:45;;;;;;;20.83;12.93;;;6.80;55.10;;;;;;5019452;28;20053;-36
2023/12/08 01:23:13;;;;;;;23.65;12.95;;;6.80;55.10;;;;;;5023879;28;20413;-35
2023/12/08 01:25:40;;;;;;;22.90;13.18;;;6.80;55.10;;;;;;5019072;28;20049;-37
2023/12/08 01:28:07;;;;;;;21.23;12.77;;;6.80;55.10;;;;;;5020825;28;20049;-44
2023/12/08 01:30:34;;;;;;;23.67;13.35;;;6.80;55.10;;;;;;5023007;28;20057;-44
2023/12/08 01:33:03;;;;;;;22.17;13.02;;;6.80;55.10;;;;;;5018122;28;20056;-45
2023/12/08 01:35:30;;;;;;;22.83;12.63;;;6.80;55.10;;;;;;5019569;28;20056;-44
2023/12/08 01:37:57;;;;;;;20.20;13.05;;;6.80;55.10;;;;;;5019561;28;20045;-47
2023/12/08 01:40:25;;;;;;;24.55;12.90;;;6.80;55.10;;;;;;5019646;28;20060;-42
2023/12/08 01:42:52;;;;;;;19.23;12.27;;;6.90;55.20;;;;;;5024268;28;20053;-47
2023/12/08 01:45:20;;;;;;;23.33;13.43;;;6.80;55.10;;;;;;5023974;28;20057;-43
2023/12/08 01:47:48;;;;;;;25.75;12.77;;;6.80;55.20;;;;;;5018520;28;20053;-42
2023/12/08 01:50:18;;;;;;;19.30;12.70;;;6.80;55.10;;;;;;5021563;28;20065;-43
2023/12/08 01:52:46;;;;;;;20.88;12.65;;;6.90;55.10;;;;;;5023627;28;20180;-41
2023/12/08 01:55:14;;;;;;;24.50;12.73;;;6.90;55.20;;;;;;5019183;28;20060;-40
2023/12/08 01:57:41;;;;;;;23.15;12.68;;;6.90;55.10;;;;;;5024020;28;20477;-44
2023/12/08 02:00:10;;;;;;;19.73;11.82;;;6.80;55.10;;;;;;5025587;28;20049;-43
2023/12/08 02:02:38;;;;;;;23.58;12.82;;;6.80;55.00;;;;;;5024255;28;20042;-42
2023/12/08 02:05:07;;;;;;;22.27;13.07;;;6.80;55.00;;;;;;5023292;28;20565;-46
2023/12/08 02:07:36;;;;;;;23.67;12.77;;;6.90;54.90;;;;;;5021133;28;20049;-45
2023/12/08 02:10:04;;;;;;;23.58;12.73;;;6.80;54.90;;;;;;5026211;28;20061;-43
2023/12/08 02:12:31;;;;;;;21.77;12.75;;;6.80;54.90;;;;;;5031989;28;20061;-40
2023/12/08 02:14:59;;;;;;;18.67;11.65;;;6.90;54.90;;;;;;5020903;28;20092;-41
2023/12/08 02:17:31;;;;;;;21.88;12.02;;;6.80;54.80;;;;;;5018143;28;20410;-44
2023/12/08 02:19:59;;;;;;;19.42;11.07;;;6.80;54.70;;;;;;5016655;28;20497;-44
2023/12/08 02:22:27;;;;;;;19.15;11.25;;;6.90;54.90;;;;;;5021907;28;20061;-42
2023/12/08 02:24:55;;;;;;;20.30;12.23;;;6.80;54.70;;;;;;5021252;28;20049;-46
2023/12/08 02:27:22;;;;;;;20.42;12.38;;;6.80;54.70;;;;;;5021888;28;20057;-44
2023/12/08 02:29:50;;;;;;;18.05;12.13;;;6.90;54.80;;;;;;5022179;28;20060;-41
2023/12/08 02:32:23;;;;;;;21.90;12.27;;;6.90;54.80;;;;;;5023546;28;20065;-42
2023/12/08 02:34:52;;;;;;;18.65;11.48;;;6.90;54.70;;;;;;5019994;28;20060;-44
2023/12/08 02:37:21;;;;;;;21.00;11.48;;;6.90;54.70;;;;;;5018997;28;20438;-44
2023/12/08 02:39:49;;;;;;;21.35;11.95;;;6.90;54.80;;;;;;5022550;28;20056;-40
2023/12/08 02:42:19;;;;;;;21.25;12.40;;;6.90;54.80;;;;;;5026075;28;20061;-42
2023/12/08 02:44:47;;;;;;;20.95;12.02;;;6.90;54.60;;;;;;5021762;28;20057;-44
2023/12/08 02:47:14;;;;;;;21.65;12.48;;;6.90;54.50;;;;;;5023738;28;20414;-42
2023/12/08 02:49:41;;;;;;;21.63;12.18;;;6.90;54.40;;;;;;5021205;28;20055;-44
2023/12/08 02:52:08;;;;;;;18.42;10.95;;;6.90;54.40;;;;;;5021221;28;20064;-45
2023/12/08 02:54:36;;;;;;;21.63;12.20;;;6.90;54.50;;;;;;5022746;28;20561;-43
2023/12/08 02:57:03;;;;;;;19.77;11.27;;;6.90;54.40;;;;;;5018350;28;20049;-44
2023/12/08 02:59:31;;;;;;;19.45;11.90;;;6.90;54.40;;;;;;5017718;28;20430;-44
2023/12/08 03:01:59;;;;;;;24.52;12.27;;;6.90;54.50;;;;;;5020274;28;20058;-44
2023/12/08 03:04:26;;;;;;;20.58;12.77;;;6.80;54.40;;;;;;5017933;28;20060;-43
2023/12/08 03:06:53;;;;;;;19.38;11.85;;;6.80;54.40;;;;;;5030906;28;20490;-41
2023/12/08 03:09:20;;;;;;;18.25;11.52;;;6.90;54.50;;;;;;5020896;28;20049;-46
2023/12/08 03:11:48;;;;;;;20.98;12.27;;;6.90;54.60;;;;;;5020933;28;20537;-39
2023/12/08 03:14:15;;;;;;;20.20;11.98;;;6.90;54.80;;;;;;5026443;28;20061;-42
2023/12/08 03:16:45;;;;;;;22.95;13.07;;;6.90;54.80;;;;;;5020678;28;20064;-44
2023/12/08 03:19:13;;;;;;;21.40;12.50;;;6.90;54.80;;;;;;5014939;28;20072;-47
2023/12/08 03:21:40;;;;;;;21.23;12.27;;;6.90;54.90;;;;;;5025453;28;20060;-39
2023/12/08 03:24:07;;;;;;;22.73;12.85;;;6.80;54.90;;;;;;5023306;28;20413;-45
2023/12/08 03:26:34;;;;;;;19.40;12.18;;;6.90;55.00;;;;;;5026053;28;20060;-46
2023/12/08 03:29:02;;;;;;;21.83;12.93;;;6.90;55.10;;;;;;5019617;28;20057;-43
2023/12/08 03:31:32;;;;;;;18.35;11.93;;;6.90;55.20;;;;;;5028790;28;20057;-46
2023/12/08 03:34:00;;;;;;;20.58;12.10;;;6.90;55.20;;;;;;5038119;28;20053;-40
2023/12/08 03:36:28;;;;;;;21.70;11.98;;;6.90;55.30;;;;;;5035173;28;20060;-44
2023/12/08 03:38:55;;;;;;;20.10;12.05;;;6.90;55.30;;;;;;5031788;28;20056;-46
2023/12/08 03:41:22;;;;;;;19.35;12.48;;;6.90;55.40;;;;;;5037136;28;20064;-44
2023/12/08 03:43:49;;;;;;;21.40;12.68;;;6.90;55.60;;;;;;5033111;28;20057;-45
2023/12/08 03:46:16;;;;;;;22.88;13.20;;;6.90;55.70;;;;;;5032074;28;20223;-42
2023/12/08 03:48:44;;;;;;;24.85;13.25;;;6.90;55.80;;;;;;5033576;28;20057;-44
2023/12/08 03:51:12;;;;;;;21.52;13.38;;;6.90;55.80;;;;;;5035795;28;20057;-42
2023/12/08 03:53:40;;;;;;;23.42;13.45;;;6.90;55.90;;;;;;5031342;28;20387;-42
2023/12/08 03:56:08;;;;;;;19.65;12.23;;;6.90;55.90;;;;;;5029559;28;20494;-46
2023/12/08 03:58:35;;;;;;;22.33;13.20;;;6.80;56.00;;;;;;5026364;28;20054;-44
2023/12/08 04:01:02;;;;;;;22.42;14.10;;;6.80;56.10;;;;;;5032921;28;20068;-40
2023/12/08 04:03:30;;;;;;;22.77;13.18;;;6.90;56.20;;;;;;5035690;28;20053;-41
2023/12/08 04:05:57;;;;;;;22.90;13.55;;;6.80;56.20;;;;;;5034531;28;20056;-45
2023/12/08 04:08:25;;;;;;;23.40;12.73;;;6.80;56.30;;;;;;5030705;28;20422;-43
2023/12/08 04:10:52;;;;;;;22.92;14.25;;;6.80;56.40;;;;;;5035710;28;20053;-43
2023/12/08 04:13:20;;;;;;;24.95;14.00;;;6.80;56.60;;;;;;5023206;28;20057;-42
2023/12/08 04:15:50;;;;;;;26.80;14.38;;;6.80;56.70;;;;;;5037471;28;20048;-42
2023/12/08 04:18:17;;;;;;;25.40;14.32;;;6.80;56.80;;;;;;5027946;28;20057;-41
2023/12/08 04:20:44;;;;;;;23.33;13.30;;;6.80;56.80;;;;;;5029068;28;20053;-43
2023/12/08 04:23:11;;;;;;;23.80;13.90;;;6.80;56.90;;;;;;5029803;28;20413;-42
2023/12/08 04:25:41;;;;;;;24.77;15.07;;;6.80;57.00;;;;;;5032392;28;20401;-42
2023/12/08 04:28:08;;;;;;;22.33;13.98;;;6.70;57.10;;;;;;5031846;28;20046;-42
2023/12/08 04:30:35;;;;;;;22.48;13.93;;;6.70;57.20;;;;;;5028073;28;20049;-40
2023/12/08 04:33:03;;;;;;;26.63;15.50;;;6.70;57.30;;;;;;5024966;28;20522;-43
2023/12/08 04:35:30;;;;;;;26.40;15.00;;;6.70;57.30;;;;;;5033749;28;20056;-42
2023/12/08 04:37:57;;;;;;;28.33;15.70;;;6.80;57.50;;;;;;5033718;28;20045;-46
2023/12/08 04:40:24;;;;;;;24.10;14.45;;;6.70;57.50;;;;;;5040757;28;20493;-42
2023/12/08 04:42:53;;;;;;;25.42;14.95;;;6.70;57.60;;;;;;5040033;28;20068;-46
2023/12/08 04:45:20;;;;;;;24.55;15.32;;;6.70;57.60;;;;;;5028456;28;20045;-43
2023/12/08 04:47:47;;;;;;;24.42;14.73;;;6.70;57.60;;;;;;5015730;28;20062;-42
2023/12/08 04:50:14;;;;;;;23.02;14.20;;;6.70;57.60;;;;;;5018922;28;20501;-43
2023/12/08 04:52:42;;;;;;;28.33;16.10;;;6.70;57.70;;;;;;5019796;28;20055;-40
2023/12/08 04:55:09;;;;;;;28.23;16.02;;;6.70;57.80;;;;;;5030351;28;20057;-43
2023/12/08 04:57:37;;;;;;;28.23;16.38;;;6.70;57.80;;;;;;5036381;28;20052;-42
2023/12/08 05:00:07;;;;;;;28.77;16.00;;;6.70;57.90;;;;;;5026519;28;20465;-35
2023/12/08 05:02:34;;;;;;;28.90;16.13;;;6.70;57.90;;;;;;5032415;28;20076;-35
2023/12/08 05:05:03;;;;;;;25.98;15.30;;;6.70;57.90;;;;;;5027742;28;20125;-34
2023/12/08 05:07:30;;;;;;;28.65;16.00;;;6.70;58.00;;;;;;5028725;28;20311;-34
2023/12/08 05:09:58;;;;;;;26.17;15.88;;;6.70;58.10;;;;;;5023975;28;20050;-34
2023/12/08 05:12:25;;;;;;;25.65;15.73;;;6.70;58.10;;;;;;5012835;28;20060;-34
2023/12/08 05:14:53;;;;;;;27.02;15.88;;;6.70;58.20;;;;;;5018554;28;20057;-35
2023/12/08 05:17:21;;;;;;;30.83;16.75;;;6.70;58.30;;;;;;5018250;28;20049;-34
2023/12/08 05:19:49;;;;;;;27.38;15.93;;;6.60;58.20;;;;;;5020296;28;20477;-34
2023/12/08 05:22:16;;;;;;;26.85;15.57;;;6.60;58.30;;;;;;5020530;28;20057;-35
2023/12/08 05:24:43;;;;;;;27.40;16.70;;;6.70;58.50;;;;;;5019882;28;20060;-36
2023/12/08 05:27:10;;;;;;;30.17;16.23;;;6.70;58.50;;;;;;5020852;28;20054;-37
2023/12/08 05:29:37;;;;;;;25.77;15.98;;;6.60;58.40;;;;;;5020813;28;20045;-34
2023/12/08 05:32:05;;;;;;;27.80;15.60;;;6.60;58.50;;;;;;5026685;28;20065;-34
2023/12/08 05:34:34;;;;;;;27.90;15.60;;;6.70;58.60;;;;;;5015793;28;20058;-37
2023/12/08 05:37:01;;;;;;;26.15;15.95;;;6.70;58.70;;;;;;5028442;28;20053;-35
2023/12/08 05:39:28;;;;;;;28.08;15.60;;;6.70;58.70;;;;;;5018581;28;20053;-36
2023/12/08 05:41:56;;;;;;;27.30;16.00;;;6.70;58.70;;;;;;5012651;28;20394;-34
2023/12/08 05:44:23;;;;;;;36.42;20.08;;;6.70;58.70;;;;;;5023339;28;20049;-36
2023/12/08 05:46:50;;;;;;;28.77;17.05;;;6.70;58.70;;;;;;5020642;28;20053;-34
2023/12/08 05:49:18;;;;;;;24.70;14.23;;;6.70;58.70;;;;;;5022062;28;20048;-36
2023/12/08 05:51:46;;;;;;;24.95;14.93;;;6.70;58.70;;;;;;5023602;28;20053;-34
2023/12/08 05:54:14;;;;;;;27.02;15.13;;;6.70;58.70;;;;;;5017424;28;20061;-34
2023/12/08 05:56:41;;;;;;;27.45;15.40;;;6.70;58.70;;;;;;5016202;28;20049;-35
2023/12/08 05:59:08;;;;;;;26.10;14.90;;;6.70;58.70;;;;;;5019101;28;20049;-35
2023/12/08 06:01:35;;;;;;;25.27;14.95;;;6.70;58.80;;;;;;5016703;28;20076;-34
2023/12/08 06:04:02;;;;;;;27.52;15.35;;;6.70;58.80;;;;;;5020334;28;20049;-35
2023/12/08 06:06:31;;;;;;;42.88;22.67;;;6.70;58.90;;;;;;5014356;28;20536;-33
2023/12/08 06:09:00;;;;;;;27.63;15.93;;;6.70;58.90;;;;;;5019196;28;20045;-36
2023/12/08 06:11:28;;;;;;;25.80;15.00;;;6.70;58.90;;;;;;5017686;28;20053;-41
2023/12/08 06:13:57;;;;;;;26.35;15.18;;;6.70;59.00;;;;;;5018778;28;20054;-43
2023/12/08 06:16:25;;;;;;;24.42;14.25;;;6.70;58.90;;;;;;5023028;28;20502;-41
2023/12/08 06:18:52;;;;;;;28.83;16.13;;;6.70;59.00;;;;;;5029157;28;20049;-43
2023/12/08 06:21:19;;;;;;;39.35;19.83;;;6.70;59.00;;;;;;5021245;28;20045;-43
2023/12/08 06:23:47;;;;;;;29.25;16.17;;;6.70;59.10;;;;;;5027496;28;20065;-40
2023/12/08 06:26:15;;;;;;;28.13;15.35;;;6.70;59.20;;;;;;5026515;28;20053;-42
2023/12/08 06:28:43;;;;;;;23.40;14.07;;;6.70;59.20;;;;;;5031038;28;20530;-42
2023/12/08 06:31:10;;;;;;;24.35;14.52;;;6.70;59.20;;;;;;5023141;28;20056;-41
2023/12/08 06:33:38;;;;;;;24.40;14.30;;;6.70;59.20;;;;;;5021266;28;20053;-39
2023/12/08 06:36:06;;;;;;;22.27;14.25;;;6.70;59.20;;;;;;5025918;28;20060;-44
2023/12/08 06:38:34;;;;;;;27.23;15.52;;;6.70;59.20;;;;;;5020632;28;20049;-42
2023/12/08 06:41:01;;;;;;;23.58;14.75;;;6.70;59.20;;;;;;5025284;28;20054;-42
2023/12/08 06:43:30;;;;;;;24.70;14.85;;;6.70;59.20;;;;;;5015349;28;20494;-43
2023/12/08 06:45:57;;;;;;;23.58;14.75;;;6.80;59.30;;;;;;5018083;28;20061;-46
2023/12/08 06:48:24;;;;;;;24.92;14.27;;;6.70;59.30;;;;;;5019421;28;20064;-41
2023/12/08 06:50:51;;;;;;;22.63;13.82;;;6.80;59.30;;;;;;5018732;28;20869;-39
2023/12/08 06:53:19;;;;;;;26.55;15.00;;;6.80;59.30;;;;;;5021186;28;20045;-42
2023/12/08 06:55:46;;;;;;;28.33;15.25;;;6.80;59.40;;;;;;5018862;28;20057;-43
2023/12/08 06:58:13;;;;;;;24.02;15.15;;;6.80;59.40;;;;;;5023126;28;20093;-43
2023/12/08 07:00:42;;;;;;;22.27;13.73;;;6.80;59.40;;;;;;5017574;28;20046;-39
2023/12/08 07:03:09;;;;;;;24.25;14.55;;;6.80;59.40;;;;;;5025578;28;20481;-44
2023/12/08 07:05:36;;;;;;;25.52;15.27;;;6.80;59.40;;;;;;5019689;28;20062;-43
2023/12/08 07:08:04;;;;;;;25.30;14.93;;;6.80;59.40;;;;;;5020199;28;20120;-44
2023/12/08 07:10:31;;;;;;;24.02;14.40;;;6.80;59.40;;;;;;5023486;28;20050;-43
2023/12/08 07:12:58;;;;;;;25.10;14.95;;;6.80;59.40;;;;;;5021543;28;20057;-42
2023/12/08 07:15:25;;;;;;;22.40;14.63;;;6.90;59.50;;;;;;5018614;28;20049;-44
2023/12/08 07:17:55;;;;;;;27.42;15.20;;;6.80;59.40;;;;;;5023710;28;20549;-44
2023/12/08 07:20:22;;;;;;;22.52;14.15;;;6.90;59.50;;;;;;5023847;28;20412;-33
2023/12/08 07:22:49;;;;;;;26.02;14.98;;;6.80;59.50;;;;;;5015411;28;20330;-35
2023/12/08 07:25:16;;;;;;;27.52;15.75;;;6.90;59.50;;;;;;5023377;28;20080;-35
2023/12/08 07:27:44;;;;;;;25.77;14.45;;;6.90;59.50;;;;;;5016937;28;20517;-34
2023/12/08 07:30:12;;;;;;;27.27;15.25;;;6.90;59.60;;;;;;5021623;28;20045;-35
2023/12/08 07:32:39;;;;;;;24.05;15.27;;;6.90;59.60;;;;;;5021635;28;20056;-35
2023/12/08 07:35:08;;;;;;;24.95;14.68;;;6.90;59.60;;;;;;5025706;28;20056;-34
2023/12/08 07:37:39;;;;;;;25.52;15.02;;;6.90;59.60;;;;;;5019216;28;20391;-35
2023/12/08 07:40:08;;;;;;;31.60;14.73;;;6.90;59.60;;;;;;5019583;28;20708;-34
2023/12/08 07:42:36;;;;;;;25.88;15.68;;;6.90;59.60;;;;;;5015014;28;20445;-34
2023/12/08 07:45:05;;;;;;;24.92;15.43;;;6.90;59.70;;;;;;5023759;28;20061;-34
2023/12/08 07:47:33;;;;;;;23.65;15.50;;;6.90;59.70;;;;;;5024573;28;20060;-35
2023/12/08 07:50:01;;;;;;;26.50;15.27;;;7.00;59.80;;;;;;5016769;28;20053;-34
2023/12/08 07:52:31;;;;;;;26.88;15.40;;;6.90;59.70;;;;;;5028462;28;20056;-35
2023/12/08 07:54:59;;;;;;;27.98;16.17;;;7.00;59.80;;;;;;5020980;28;20050;-35
2023/12/08 07:57:26;;;;;;;28.77;17.08;;;7.00;59.70;;;;;;5018389;28;20525;-34
2023/12/08 07:59:56;;;;;;;27.27;15.82;;;7.00;59.70;;;;;;5024547;28;20060;-34
2023/12/08 08:02:23;;;;;;;26.73;15.27;;;7.00;59.70;;;;;;5020529;28;20479;-35
2023/12/08 08:04:50;;;;;;;24.80;15.27;;;7.00;59.70;;;;;;5020068;28;20055;-35
2023/12/08 08:07:18;;;;;;;24.98;15.23;;;7.00;59.70;;;;;;5024586;28;20045;-34
2023/12/08 08:09:46;;;;;;;25.27;16.63;;;7.00;59.70;;;;;;5023023;28;20501;-35
2023/12/08 08:12:14;;;;;;;26.55;16.45;;;7.10;59.80;;;;;;5026039;28;20421;-35
2023/12/08 08:14:42;;;;;;;28.02;16.10;;;7.10;59.80;;;;;;5019225;28;20064;-36
2023/12/08 08:17:09;;;;;;;25.35;16.35;;;7.10;59.80;;;;;;5022446;28;20537;-35
2023/12/08 08:19:36;;;;;;;25.92;16.23;;;7.10;59.80;;;;;;5024399;28;20053;-35
2023/12/08 08:22:04;;;;;;;29.75;17.98;;;7.10;59.80;;;;;;5027678;28;20167;-35
2023/12/08 08:24:31;;;;;;;25.85;16.70;;;7.10;59.80;;;;;;5018095;28;20058;-34
2023/12/08 08:27:00;;;;;;;30.10;17.00;;;7.10;60.40;;;;;;5017904;28;20054;-35
2023/12/08 08:29:28;;;;;;;26.50;16.92;;;7.10;59.90;;;;;;5020822;28;20072;-37
2023/12/08 08:31:55;;;;;;;27.38;16.92;;;7.10;59.90;;;;;;5022439;28;20053;-34
2023/12/08 08:34:22;;;;;;;28.33;17.02;;;7.20;59.90;;;;;;5021069;28;20057;-34
2023/12/08 08:36:50;;;;;;;28.00;17.27;;;7.20;60.00;;;;;;5019796;28;20053;-34
2023/12/08 08:39:18;;;;;;;28.42;18.45;;;7.20;60.00;;;;;;5015069;28;20054;-35
2023/12/08 08:41:45;;;;;;;27.55;17.38;;;7.20;60.00;;;;;;5020420;28;20053;-35
2023/12/08 08:44:14;;;;;;;30.88;18.00;;;7.20;60.10;;;;;;5022239;28;20426;-35
2023/12/08 08:46:44;;;;;;;30.08;18.55;;;7.20;60.10;;;;;;5024607;28;20061;-34
2023/12/08 08:49:11;;;;;;;32.30;18.75;;;7.30;60.20;;;;;;5021342;28;20053;-36
2023/12/08 08:51:40;;;;;;;30.23;18.25;;;7.30;60.20;;;;;;5020450;28;20046;-37
2023/12/08 08:54:07;;;;;;;32.33;18.17;;;7.30;60.10;;;;;;5023230;28;20062;-34
2023/12/08 08:56:34;;;;;;;28.88;17.23;;;7.30;60.10;;;;;;5022893;28;20057;-34
2023/12/08 08:59:03;;;;;;;30.00;18.08;;;7.30;60.10;;;;;;5021127;28;20418;-34
2023/12/08 09:01:31;;;;;;;32.17;18.38;;;7.30;60.10;;;;;;5017578;28;20057;-34
2023/12/08 09:03:58;;;;;;;33.53;18.83;;;7.30;60.10;;;;;;5021567;28;20056;-34
2023/12/08 09:06:26;;;;;;;30.02;18.15;;;7.30;60.20;;;;;;5019575;28;20053;-34
2023/12/08 09:08:53;;;;;;;33.72;19.02;;;7.40;60.20;;;;;;5020394;28;20071;-34
2023/12/08 09:11:20;;;;;;;30.98;18.80;;;7.40;60.20;;;;;;5020754;28;20068;-34
2023/12/08 09:13:47;;;;;;;31.15;19.00;;;7.40;60.30;;;;;;5025182;28;20062;-36
2023/12/08 09:16:14;;;;;;;30.45;18.98;;;7.40;60.30;;;;;;5021031;28;20062;-34
2023/12/08 09:18:43;;;;;;;30.20;18.55;;;7.40;60.20;;;;;;5020248;28;20048;-35
2023/12/08 09:21:10;;;;;;;30.98;18.38;;;7.40;60.20;;;;;;5015741;28;20580;-36
2023/12/08 09:23:37;;;;;;;31.40;19.25;;;7.40;60.20;;;;;;5013734;28;20057;-36
2023/12/08 09:26:05;;;;;;;32.53;18.58;;;7.40;60.20;;;;;;5014876;28;20076;-35
2023/12/08 09:28:32;;;;;;;32.83;20.00;;;7.50;60.30;;;;;;5024168;28;20057;-34
2023/12/08 09:31:00;;;;;;;30.92;19.58;;;7.50;60.40;;;;;;5022146;28;20060;-34
2023/12/08 09:33:28;;;;;;;33.45;18.75;;;7.50;60.40;;;;;;5018994;28;20422;-34
2023/12/08 09:35:58;;;;;;;29.58;18.42;;;7.50;60.40;;;;;;5014442;28;20076;-35
2023/12/08 09:38:25;;;;;;;31.73;19.73;;;7.50;60.40;;;;;;5020803;28;20060;-34
2023/12/08 09:40:52;;;;;;;31.55;18.45;;;7.50;60.40;;;;;;5015071;28;20045;-42
2023/12/08 09:43:25;;;;;;;31.80;18.45;;;7.60;60.50;;;;;;5016682;28;20068;-43
2023/12/08 09:45:55;;;;;;;31.48;18.67;;;7.50;60.40;;;;;;5017639;28;20061;-44
2023/12/08 09:48:26;;;;;;;32.53;18.65;;;7.60;60.40;;;;;;5013479;28;20061;-44
2023/12/08 09:50:56;;;;;;;30.30;18.00;;;7.60;60.40;;;;;;5012260;28;20052;-44
2023/12/08 09:53:26;;;;;;;28.88;17.55;;;7.60;60.30;;;;;;5017336;28;20402;-42
2023/12/08 09:55:54;;;;;;;33.67;19.55;;;7.70;60.40;;;;;;5014957;28;20061;-42
2023/12/08 09:58:22;;;;;;;30.98;18.95;;;7.70;60.40;;;;;;5015662;28;20056;-41
2023/12/08 10:00:50;;;;;;;29.40;18.42;;;7.70;60.40;;;;;;5020009;28;20531;-43
2023/12/08 10:03:18;;;;;;;30.60;18.83;;;7.70;60.40;;;;;;5023131;28;20519;-46
2023/12/08 10:05:45;;;;;;;34.42;17.80;;;7.80;60.40;;;;;;5022352;28;20405;-42
2023/12/08 10:08:13;;;;;;;32.05;18.02;;;7.80;60.30;;;;;;5027691;28;20049;-44
2023/12/08 10:10:42;;;;;;;32.25;19.92;;;7.80;60.40;;;;;;5021518;28;20390;-39
2023/12/08 10:13:10;;;;;;;33.75;19.95;;;7.80;60.30;;;;;;5022370;28;20061;-40
2023/12/08 10:15:41;;;;;;;32.70;20.27;;;7.80;60.30;;;;;;5021742;28;20057;-45
2023/12/08 10:18:09;;;;;;;35.22;19.48;;;7.80;60.30;;;;;;5016479;28;20064;-43
2023/12/08 10:20:36;;;;;;;29.95;19.13;;;7.90;60.30;;;;;;5022487;28;20474;-46
2023/12/08 10:23:03;;;;;;;36.00;22.92;;;7.90;60.40;;;;;;5020096;28;20053;-41
2023/12/08 10:25:31;;;;;;;35.42;21.73;;;7.90;60.40;;;;;;5028503;28;20072;-40
2023/12/08 10:28:00;;;;;;;32.63;20.95;;;7.90;60.40;;;;;;5021054;28;20061;-43
2023/12/08 10:30:28;;;;;;;30.42;18.80;;;8.00;60.50;;;;;;5026048;28;20053;-43
2023/12/08 10:32:55;;;;;;;33.22;18.70;;;7.90;60.50;;;;;;5017736;28;20057;-47
2023/12/08 10:35:23;;;;;;;28.27;17.73;;;8.00;60.50;;;;;;5022881;28;20058;-44
2023/12/08 10:37:51;;;;;;;31.83;17.75;;;8.00;60.50;;;;;;5024771;28;20041;-45
2023/12/08 10:40:19;;;;;;;29.67;18.10;;;8.00;60.50;;;;;;5024577;28;20053;-48
2023/12/08 10:42:48;;;;;;;26.65;17.13;;;8.00;60.60;;;;;;5027933;28;20053;-42
2023/12/08 10:45:18;;;;;;;25.30;16.02;;;8.10;60.60;;;;;;5022799;28;20070;-47
2023/12/08 10:47:49;;;;;;;36.65;20.17;;;8.10;60.60;;;;;;5020427;28;20433;-46
2023/12/08 10:50:18;;;;;;;29.70;18.17;;;8.10;60.60;;;;;;5020126;28;20057;-44
2023/12/08 10:52:46;;;;;;;29.60;17.38;;;8.10;60.70;;;;;;5016067;28;20064;-40
2023/12/08 10:55:13;;;;;;;29.73;17.80;;;8.10;60.80;;;;;;4992351;28;20058;-44
2023/12/08 10:57:43;;;;;;;29.02;17.45;;;8.20;60.90;;;;;;5005347;28;20418;-40
2023/12/08 11:00:15;;;;;;;31.20;17.00;;;8.20;60.90;;;;;;4999716;28;20520;-44
2023/12/08 11:02:47;;;;;;;32.80;17.05;;;8.20;61.00;;;;;;5003773;28;20050;-43
2023/12/08 11:05:22;;;;;;;31.20;17.48;;;8.20;61.00;;;;;;5001816;28;20049;-43
2023/12/08 11:07:52;;;;;;;26.88;17.35;;;8.30;61.10;;;;;;5006002;28;20382;-41
2023/12/08 11:10:20;;;;;;;26.17;16.58;;;8.30;61.10;;;;;;5004341;28;20049;-43
2023/12/08 11:12:56;;;;;;;31.98;18.67;;;8.30;61.00;;;;;;5013279;28;20498;-44
2023/12/08 11:15:24;;;;;;;29.00;17.45;;;8.30;61.00;;;;;;4999526;28;20062;-42
2023/12/08 11:17:59;;;;;;;55.25;29.67;;;8.40;61.00;;;;;;5003786;28;20386;-45
2023/12/08 11:20:27;;;;;;;44.15;23.98;;;8.40;61.10;;;;;;5000816;28;20062;-44
2023/12/08 11:22:54;;;;;;;32.05;19.10;;;8.50;61.10;;;;;;5003547;28;20048;-45
2023/12/08 11:25:29;;;;;;;27.67;16.73;;;8.50;61.10;;;;;;4995558;28;20058;-43
2023/12/08 11:28:06;;;;;;;29.75;16.90;;;8.50;61.10;;;;;;4999285;28;20419;-43
2023/12/08 11:30:44;;;;;;;30.10;17.45;;;8.50;61.10;;;;;;5004209;28;20054;-41
2023/12/08 11:33:20;;;;;;;32.28;18.10;;;8.60;61.00;;;;;;5005128;28;21182;-42
2023/12/08 11:35:51;;;;;;;33.63;17.42;;;8.60;60.90;;;;;;5003069;28;20414;-43
2023/12/08 11:38:27;;;;;;;33.25;18.98;;;8.60;60.80;;;;;;5004770;28;20053;-40
2023/12/08 11:40:55;;;;;;;30.20;17.58;;;8.70;60.80;;;;;;5006511;28;20068;-47
2023/12/08 11:43:23;;;;;;;30.85;17.45;;;8.70;60.80;;;;;;5012447;28;20520;-41
2023/12/08 11:45:51;;;;;;;28.75;16.83;;;8.70;60.80;;;;;;5001572;28;20049;-42
2023/12/08 11:48:20;;;;;;;28.15;17.20;;;8.80;60.90;;;;;;5005341;28;20050;-43
2023/12/08 11:50:48;;;;;;;29.85;16.77;;;8.80;61.00;;;;;;5004945;28;20061;-43
2023/12/08 11:53:15;;;;;;;29.58;16.58;;;8.80;60.90;;;;;;5007941;28;20727;-43
2023/12/08 11:55:44;;;;;;;28.85;16.40;;;8.80;61.00;;;;;;5011997;28;20491;-42
2023/12/08 11:58:11;;;;;;;26.95;15.60;;;8.90;61.00;;;;;;5007324;28;20056;-42
2023/12/08 12:00:41;;;;;;;25.42;14.35;;;8.90;61.00;;;;;;5014619;28;20533;-42
2023/12/08 12:03:10;;;;;;;27.90;14.93;;;8.90;61.00;;;;;;5018915;28;20375;-44
2023/12/08 12:05:39;;;;;;;25.80;14.70;;;9.00;61.10;;;;;;5020482;28;20050;-43
2023/12/08 12:08:08;;;;;;;21.23;12.77;;;9.00;61.00;;;;;;5018242;28;20049;-42
2023/12/08 12:10:35;;;;;;;25.55;14.05;;;9.00;61.10;;;;;;5015120;28;20060;-44
2023/12/08 12:13:05;;;;;;;29.67;14.88;;;9.10;61.30;;;;;;5011896;28;20053;-43
2023/12/08 12:15:34;;;;;;;27.23;13.73;;;9.10;61.30;;;;;;5006014;28;20053;-41
2023/12/08 12:18:02;;;;;;;23.75;14.07;;;9.10;61.30;;;;;;5008594;28;20049;-45
2023/12/08 12:20:31;;;;;;;25.92;15.02;;;9.10;61.40;;;;;;5017262;28;20064;-44
2023/12/08 12:22:59;;;;;;;26.20;15.10;;;9.20;61.50;;;;;;5010129;28;20053;-44
2023/12/08 12:25:27;;;;;;;29.80;14.32;;;9.20;61.40;;;;;;5009946;28;20058;-44
2023/12/08 12:27:55;;;;;;;28.48;15.55;;;9.20;61.30;;;;;;5011376;28;20054;-42
2023/12/08 12:30:23;;;;;;;25.75;13.57;;;9.20;61.30;;;;;;5010298;28;20061;-43
2023/12/08 12:32:51;;;;;;;29.88;15.57;;;9.20;61.40;;;;;;5007496;28;20404;-45
2023/12/08 12:35:18;;;;;;;25.90;14.85;;;9.20;61.50;;;;;;5014050;28;20056;-44
2023/12/08 12:37:47;;;;;;;22.15;12.98;;;9.20;61.50;;;;;;5016468;28;20057;-43
2023/12/08 12:40:16;;;;;;;26.90;14.10;;;9.20;61.50;;;;;;5015588;28;20129;-44